createdAt,value
2023-03-02T00:00:31.368Z,1017.84
2023-03-02T00:01:31.354Z,1017.88
2023-03-02T00:02:31.723Z,1017.87
2023-03-02T00:03:31.423Z,1017.88
2023-03-02T00:04:31.336Z,1017.87
2023-03-02T00:05:31.308Z,1017.91
2023-03-02T00:06:31.706Z,1017.92
2023-03-02T00:07:31.314Z,1017.87
2023-03-02T00:08:31.301Z,1017.94
2023-03-02T00:09:31.268Z,1017.91
2023-03-02T00:10:31.317Z,1017.98
2023-03-02T00:11:31.245Z,1017.97
2023-03-02T00:12:31.296Z,1018.01
2023-03-02T00:13:31.204Z,1017.99
2023-03-02T00:14:31.246Z,1018.04
2023-03-02T00:15:31.219Z,1018.07
2023-03-02T00:16:31.488Z,1018.03
2023-03-02T00:17:32.148Z,1018.08
2023-03-02T00:18:31.206Z,1018.04
2023-03-02T00:19:31.151Z,1018.03
2023-03-02T00:20:31.160Z,1018.02
2023-03-02T00:21:31.144Z,1018.03
2023-03-02T00:22:31.133Z,1017.93
2023-03-02T00:23:31.119Z,1017.94
2023-03-02T00:24:31.134Z,1017.93
2023-03-02T00:25:31.100Z,1017.91
2023-03-02T00:26:31.328Z,1017.93
2023-03-02T00:27:31.062Z,1017.93
2023-03-02T00:28:31.017Z,1017.96
2023-03-02T00:29:31.108Z,1017.99
2023-03-02T00:30:30.999Z,1017.93
2023-03-02T00:31:31.089Z,1017.92
2023-03-02T00:32:31.086Z,1017.93
2023-03-02T00:33:31.022Z,1017.94
2023-03-02T00:34:31.018Z,1017.91
2023-03-02T00:35:31.022Z,1017.93
2023-03-02T00:36:30.955Z,1017.93
2023-03-02T00:37:30.970Z,1017.95
2023-03-02T00:38:30.926Z,1017.94
2023-03-02T00:39:30.967Z,1017.93
2023-03-02T00:40:30.938Z,1017.90
2023-03-02T00:41:30.922Z,1017.88
2023-03-02T00:42:30.913Z,1017.88
2023-03-02T00:43:30.857Z,1017.91
2023-03-02T00:44:30.893Z,1017.89
2023-03-02T00:45:30.861Z,1017.91
2023-03-02T00:46:31.415Z,1017.92
2023-03-02T00:47:30.831Z,1017.90
2023-03-02T00:48:30.818Z,1017.87
2023-03-02T00:49:30.839Z,1017.90
2023-03-02T00:50:30.807Z,1017.88
2023-03-02T00:51:30.793Z,1017.86
2023-03-02T00:52:30.777Z,1017.90
2023-03-02T00:53:30.772Z,1017.87
2023-03-02T00:54:30.799Z,1017.91
2023-03-02T00:55:30.758Z,1017.88
2023-03-02T00:56:31.052Z,1017.88
2023-03-02T00:57:30.730Z,1017.86
2023-03-02T00:58:30.731Z,1017.89
2023-03-02T00:59:30.690Z,1017.88
2023-03-02T01:00:30.710Z,1017.91
2023-03-02T01:01:30.679Z,1017.93
2023-03-02T01:02:30.760Z,1017.92
2023-03-02T01:03:30.722Z,1017.91
2023-03-02T01:04:30.622Z,1017.92
2023-03-02T01:05:30.679Z,1017.95
2023-03-02T01:06:30.958Z,1017.95
2023-03-02T01:07:30.623Z,1017.97
2023-03-02T01:08:30.589Z,1017.97
2023-03-02T01:09:30.567Z,1017.93
2023-03-02T01:10:30.588Z,1017.97
2023-03-02T01:11:30.558Z,1017.96
2023-03-02T01:12:30.532Z,1017.98
2023-03-02T01:13:30.552Z,1017.96
2023-03-02T01:14:31.477Z,1017.98
2023-03-02T01:15:30.538Z,1018.01
2023-03-02T01:16:30.991Z,1018.00
2023-03-02T01:17:30.476Z,1017.99
2023-03-02T01:18:30.493Z,1018.00
2023-03-02T01:19:31.111Z,1018.02
2023-03-02T01:20:30.530Z,1018.02
2023-03-02T01:21:30.451Z,1017.99
2023-03-02T01:22:30.452Z,1018.04
2023-03-02T01:23:30.416Z,1017.98
2023-03-02T01:24:30.397Z,1017.98
2023-03-02T01:25:30.488Z,1017.95
2023-03-02T01:26:30.928Z,1017.98
2023-03-02T01:27:30.402Z,1017.95
2023-03-02T01:28:30.395Z,1017.91
2023-03-02T01:29:30.341Z,1017.89
2023-03-02T01:30:30.366Z,1017.89
2023-03-02T01:31:30.397Z,1017.86
2023-03-02T01:32:30.374Z,1017.79
2023-03-02T01:33:30.324Z,1017.81
2023-03-02T01:34:30.333Z,1017.78
2023-03-02T01:35:30.374Z,1017.78
2023-03-02T01:36:30.967Z,1017.76
2023-03-02T01:37:30.273Z,1017.76
2023-03-02T01:38:30.314Z,1017.73
2023-03-02T01:39:30.269Z,1017.70
2023-03-02T01:40:30.290Z,1017.68
2023-03-02T01:41:30.204Z,1017.68
2023-03-02T01:42:30.192Z,1017.64
2023-03-02T01:43:30.242Z,1017.68
2023-03-02T01:44:30.201Z,1017.64
2023-03-02T01:45:30.650Z,1017.66
2023-03-02T01:46:30.707Z,1017.64
2023-03-02T01:47:30.152Z,1017.62
2023-03-02T01:48:30.223Z,1017.61
2023-03-02T01:49:30.148Z,1017.62
2023-03-02T01:50:30.241Z,1017.57
2023-03-02T01:51:30.117Z,1017.56
2023-03-02T01:52:30.091Z,1017.58
2023-03-02T01:53:30.133Z,1017.54
2023-03-02T01:54:30.108Z,1017.58
2023-03-02T01:55:30.154Z,1017.57
2023-03-02T01:56:30.384Z,1017.57
2023-03-02T01:57:30.062Z,1017.55
2023-03-02T01:58:30.051Z,1017.54
2023-03-02T01:59:30.026Z,1017.57
2023-03-02T02:00:30.043Z,1017.56
2023-03-02T02:01:30.085Z,1017.56
2023-03-02T02:02:29.997Z,1017.62
2023-03-02T02:03:29.980Z,1017.59
2023-03-02T02:04:29.994Z,1017.62
2023-03-02T02:05:29.963Z,1017.57
2023-03-02T02:06:30.464Z,1017.59
2023-03-02T02:07:29.935Z,1017.60
2023-03-02T02:08:29.983Z,1017.61
2023-03-02T02:09:29.895Z,1017.59
2023-03-02T02:10:29.928Z,1017.61
2023-03-02T02:11:29.892Z,1017.60
2023-03-02T02:12:29.894Z,1017.59
2023-03-02T02:13:29.884Z,1017.56
2023-03-02T02:14:29.869Z,1017.53
2023-03-02T02:15:29.883Z,1017.51
2023-03-02T02:16:29.905Z,1017.46
2023-03-02T02:17:29.860Z,1017.43
2023-03-02T02:18:29.821Z,1017.44
2023-03-02T02:19:29.813Z,1017.41
2023-03-02T02:20:29.814Z,1017.36
2023-03-02T02:21:29.782Z,1017.38
2023-03-02T02:22:29.799Z,1017.39
2023-03-02T02:23:29.773Z,1017.34
2023-03-02T02:24:29.747Z,1017.36
2023-03-02T02:25:29.789Z,1017.44
2023-03-02T02:26:31.162Z,1017.42
2023-03-02T02:27:29.687Z,1017.39
2023-03-02T02:28:29.720Z,1017.37
2023-03-02T02:29:29.673Z,1017.42
2023-03-02T02:30:29.805Z,1017.41
2023-03-02T02:31:29.719Z,1017.39
2023-03-02T02:32:29.778Z,1017.40
2023-03-02T02:33:29.679Z,1017.35
2023-03-02T02:34:29.600Z,1017.37
2023-03-02T02:35:29.721Z,1017.37
2023-03-02T02:36:29.893Z,1017.38
2023-03-02T02:37:29.558Z,1017.33
2023-03-02T02:38:29.600Z,1017.35
2023-03-02T02:39:29.572Z,1017.37
2023-03-02T02:40:29.563Z,1017.42
2023-03-02T02:41:29.544Z,1017.42
2023-03-02T02:42:29.528Z,1017.41
2023-03-02T02:43:29.490Z,1017.39
2023-03-02T02:44:29.542Z,1017.34
2023-03-02T02:45:29.566Z,1017.36
2023-03-02T02:46:29.496Z,1017.37
2023-03-02T02:47:29.453Z,1017.36
2023-03-02T02:48:29.437Z,1017.38
2023-03-02T02:49:29.461Z,1017.35
2023-03-02T02:50:29.445Z,1017.34
2023-03-02T02:51:29.445Z,1017.39
2023-03-02T02:52:29.403Z,1017.36
2023-03-02T02:53:29.380Z,1017.38
2023-03-02T02:54:29.382Z,1017.36
2023-03-02T02:55:29.415Z,1017.40
2023-03-02T02:56:29.370Z,1017.41
2023-03-02T02:57:29.350Z,1017.37
2023-03-02T02:58:29.363Z,1017.38
2023-03-02T02:59:29.374Z,1017.33
2023-03-02T03:00:29.360Z,1017.34
2023-03-02T03:01:29.337Z,1017.34
2023-03-02T03:02:29.309Z,1017.31
2023-03-02T03:03:29.401Z,1017.37
2023-03-02T03:04:29.380Z,1017.40
2023-03-02T03:05:29.323Z,1017.40
2023-03-02T03:06:29.274Z,1017.38
2023-03-02T03:07:29.240Z,1017.39
2023-03-02T03:08:29.241Z,1017.29
2023-03-02T03:09:29.317Z,1017.26
2023-03-02T03:10:29.233Z,1017.25
2023-03-02T03:11:29.246Z,1017.25
2023-03-02T03:12:29.199Z,1017.27
2023-03-02T03:13:29.156Z,1017.26
2023-03-02T03:14:29.202Z,1017.27
2023-03-02T03:15:29.185Z,1017.30
2023-03-02T03:16:29.214Z,1017.31
2023-03-02T03:17:29.141Z,1017.31
2023-03-02T03:18:29.094Z,1017.33
2023-03-02T03:19:29.086Z,1017.25
2023-03-02T03:20:29.107Z,1017.26
2023-03-02T03:21:29.088Z,1017.29
2023-03-02T03:22:29.054Z,1017.28
2023-03-02T03:23:29.047Z,1017.29
2023-03-02T03:24:29.029Z,1017.27
2023-03-02T03:25:29.048Z,1017.24
2023-03-02T03:26:29.003Z,1017.26
2023-03-02T03:27:29.004Z,1017.26
2023-03-02T03:28:28.989Z,1017.28
2023-03-02T03:29:28.983Z,1017.27
2023-03-02T03:30:28.979Z,1017.25
2023-03-02T03:31:28.959Z,1017.26
2023-03-02T03:32:29.032Z,1017.23
2023-03-02T03:33:28.928Z,1017.26
2023-03-02T03:34:28.914Z,1017.23
2023-03-02T03:35:28.942Z,1017.27
2023-03-02T03:36:28.891Z,1017.32
2023-03-02T03:37:28.893Z,1017.33
2023-03-02T03:38:28.879Z,1017.29
2023-03-02T03:39:28.861Z,1017.27
2023-03-02T03:40:28.865Z,1017.26
2023-03-02T03:41:28.849Z,1017.26
2023-03-02T03:42:28.834Z,1017.30
2023-03-02T03:43:28.819Z,1017.25
2023-03-02T03:44:28.801Z,1017.22
2023-03-02T03:45:30.354Z,1017.22
2023-03-02T03:46:28.833Z,1017.19
2023-03-02T03:47:28.773Z,1017.21
2023-03-02T03:48:28.770Z,1017.25
2023-03-02T03:49:28.762Z,1017.25
2023-03-02T03:50:28.771Z,1017.27
2023-03-02T03:51:28.751Z,1017.27
2023-03-02T03:52:28.736Z,1017.26
2023-03-02T03:53:28.711Z,1017.35
2023-03-02T03:54:28.712Z,1017.35
2023-03-02T03:55:28.690Z,1017.29
2023-03-02T03:56:28.707Z,1017.29
2023-03-02T03:57:28.690Z,1017.36
2023-03-02T03:58:28.705Z,1017.29
2023-03-02T03:59:28.654Z,1017.33
2023-03-02T04:00:28.669Z,1017.32
2023-03-02T04:01:28.661Z,1017.30
2023-03-02T04:02:28.663Z,1017.36
2023-03-02T04:03:28.613Z,1017.36
2023-03-02T04:04:28.595Z,1017.38
2023-03-02T04:05:30.690Z,1017.39
2023-03-02T04:06:28.569Z,1017.38
2023-03-02T04:07:28.600Z,1017.41
2023-03-02T04:08:28.553Z,1017.38
2023-03-02T04:09:28.538Z,1017.35
2023-03-02T04:10:28.542Z,1017.40
2023-03-02T04:11:28.508Z,1017.42
2023-03-02T04:12:28.503Z,1017.44
2023-03-02T04:13:28.530Z,1017.39
2023-03-02T04:14:28.488Z,1017.40
2023-03-02T04:15:28.481Z,1017.38
2023-03-02T04:16:28.478Z,1017.36
2023-03-02T04:17:28.444Z,1017.37
2023-03-02T04:18:28.438Z,1017.33
2023-03-02T04:19:28.472Z,1017.36
2023-03-02T04:20:28.430Z,1017.32
2023-03-02T04:21:28.393Z,1017.35
2023-03-02T04:22:28.403Z,1017.31
2023-03-02T04:23:28.381Z,1017.32
2023-03-02T04:24:28.376Z,1017.38
2023-03-02T04:25:28.401Z,1017.31
2023-03-02T04:26:28.348Z,1017.35
2023-03-02T04:27:28.345Z,1017.27
2023-03-02T04:28:28.358Z,1017.32
2023-03-02T04:29:28.315Z,1017.31
2023-03-02T04:30:28.313Z,1017.31
2023-03-02T04:31:28.408Z,1017.28
2023-03-02T04:32:28.329Z,1017.30
2023-03-02T04:33:28.278Z,1017.33
2023-03-02T04:34:28.297Z,1017.30
2023-03-02T04:35:28.283Z,1017.33
2023-03-02T04:36:28.263Z,1017.28
2023-03-02T04:37:28.277Z,1017.27
2023-03-02T04:38:28.230Z,1017.30
2023-03-02T04:39:28.232Z,1017.33
2023-03-02T04:40:28.217Z,1017.30
2023-03-02T04:41:28.203Z,1017.27
2023-03-02T04:42:28.188Z,1017.32
2023-03-02T04:43:28.205Z,1017.29
2023-03-02T04:44:28.168Z,1017.31
2023-03-02T04:45:28.162Z,1017.32
2023-03-02T04:46:28.272Z,1017.29
2023-03-02T04:47:28.152Z,1017.32
2023-03-02T04:48:28.129Z,1017.27
2023-03-02T04:49:28.139Z,1017.35
2023-03-02T04:50:28.162Z,1017.31
2023-03-02T04:51:28.100Z,1017.32
2023-03-02T04:52:28.088Z,1017.26
2023-03-02T04:53:28.089Z,1017.30
2023-03-02T04:54:28.066Z,1017.27
2023-03-02T04:55:28.085Z,1017.31
2023-03-02T04:56:28.051Z,1017.31
2023-03-02T04:57:28.025Z,1017.31
2023-03-02T04:58:28.021Z,1017.29
2023-03-02T04:59:28.003Z,1017.26
2023-03-02T05:00:28.009Z,1017.23
2023-03-02T05:01:28.027Z,1017.21
2023-03-02T05:02:28.019Z,1017.20
2023-03-02T05:03:27.961Z,1017.16
2023-03-02T05:04:28.029Z,1017.17
2023-03-02T05:05:27.943Z,1017.16
2023-03-02T05:06:27.949Z,1017.17
2023-03-02T05:07:27.981Z,1017.17
2023-03-02T05:08:27.908Z,1017.13
2023-03-02T05:09:27.893Z,1017.15
2023-03-02T05:10:28.010Z,1017.15
2023-03-02T05:11:27.871Z,1017.16
2023-03-02T05:12:27.864Z,1017.19
2023-03-02T05:13:27.871Z,1017.14
2023-03-02T05:14:27.866Z,1017.15
2023-03-02T05:15:27.820Z,1017.16
2023-03-02T05:16:27.849Z,1017.16
2023-03-02T05:17:27.804Z,1017.18
2023-03-02T05:18:27.823Z,1017.13
2023-03-02T05:19:27.793Z,1017.14
2023-03-02T05:20:27.800Z,1017.15
2023-03-02T05:21:27.757Z,1017.14
2023-03-02T05:22:27.750Z,1017.14
2023-03-02T05:23:27.772Z,1017.16
2023-03-02T05:24:27.768Z,1017.14
2023-03-02T05:25:27.722Z,1017.11
2023-03-02T05:26:27.721Z,1017.15
2023-03-02T05:27:27.692Z,1017.14
2023-03-02T05:28:27.688Z,1017.14
2023-03-02T05:29:27.699Z,1017.14
2023-03-02T05:30:27.687Z,1017.18
2023-03-02T05:31:27.728Z,1017.14
2023-03-02T05:32:27.687Z,1017.18
2023-03-02T05:33:27.636Z,1017.20
2023-03-02T05:34:27.626Z,1017.20
2023-03-02T05:35:27.664Z,1017.18
2023-03-02T05:36:27.629Z,1017.18
2023-03-02T05:37:27.588Z,1017.15
2023-03-02T05:38:27.597Z,1017.16
2023-03-02T05:39:27.570Z,1017.19
2023-03-02T05:40:27.554Z,1017.23
2023-03-02T05:41:27.547Z,1017.20
2023-03-02T05:42:27.564Z,1017.24
2023-03-02T05:43:27.515Z,1017.22
2023-03-02T05:44:27.510Z,1017.24
2023-03-02T05:45:27.501Z,1017.27
2023-03-02T05:46:27.529Z,1017.22
2023-03-02T05:47:27.471Z,1017.24
2023-03-02T05:48:27.504Z,1017.24
2023-03-02T05:49:27.449Z,1017.26
2023-03-02T05:50:27.446Z,1017.24
2023-03-02T05:51:27.454Z,1017.30
2023-03-02T05:52:27.425Z,1017.25
2023-03-02T05:53:27.414Z,1017.24
2023-03-02T05:54:27.445Z,1017.30
2023-03-02T05:55:27.396Z,1017.27
2023-03-02T05:56:27.377Z,1017.31
2023-03-02T05:57:27.390Z,1017.31
2023-03-02T05:58:27.356Z,1017.32
2023-03-02T05:59:27.340Z,1017.34
2023-03-02T06:00:27.374Z,1017.31
2023-03-02T06:01:27.325Z,1017.33
2023-03-02T06:02:27.388Z,1017.34
2023-03-02T06:03:27.359Z,1017.35
2023-03-02T06:04:27.287Z,1017.33
2023-03-02T06:05:27.275Z,1017.38
2023-03-02T06:06:27.299Z,1017.38
2023-03-02T06:07:27.262Z,1017.38
2023-03-02T06:08:27.242Z,1017.41
2023-03-02T06:09:27.227Z,1017.39
2023-03-02T06:10:27.225Z,1017.42
2023-03-02T06:11:27.205Z,1017.42
2023-03-02T06:12:27.241Z,1017.37
2023-03-02T06:13:27.186Z,1017.38
2023-03-02T06:14:27.175Z,1017.44
2023-03-02T06:15:27.165Z,1017.42
2023-03-02T06:16:27.256Z,1017.45
2023-03-02T06:17:27.140Z,1017.37
2023-03-02T06:18:27.176Z,1017.42
2023-03-02T06:19:27.125Z,1017.46
2023-03-02T06:20:27.105Z,1017.42
2023-03-02T06:21:27.117Z,1017.42
2023-03-02T06:22:27.097Z,1017.40
2023-03-02T06:23:27.070Z,1017.41
2023-03-02T06:24:27.102Z,1017.47
2023-03-02T06:25:27.058Z,1017.43
2023-03-02T06:26:27.058Z,1017.46
2023-03-02T06:27:27.029Z,1017.46
2023-03-02T06:28:27.030Z,1017.47
2023-03-02T06:29:27.002Z,1017.49
2023-03-02T06:30:27.039Z,1017.44
2023-03-02T06:31:27.018Z,1017.47
2023-03-02T06:32:27.038Z,1017.48
2023-03-02T06:33:26.994Z,1017.48
2023-03-02T06:34:26.963Z,1017.50
2023-03-02T06:35:27.060Z,1017.56
2023-03-02T06:36:27.061Z,1017.60
2023-03-02T06:37:26.918Z,1017.58
2023-03-02T06:38:26.924Z,1017.58
2023-03-02T06:39:26.908Z,1017.56
2023-03-02T06:40:26.896Z,1017.58
2023-03-02T06:41:26.885Z,1017.59
2023-03-02T06:42:26.908Z,1017.64
2023-03-02T06:43:26.863Z,1017.63
2023-03-02T06:44:26.850Z,1017.59
2023-03-02T06:45:26.844Z,1017.60
2023-03-02T06:46:26.835Z,1017.62
2023-03-02T06:47:26.821Z,1017.61
2023-03-02T06:48:26.835Z,1017.61
2023-03-02T06:49:26.793Z,1017.61
2023-03-02T06:50:26.802Z,1017.59
2023-03-02T06:51:26.776Z,1017.56
2023-03-02T06:52:26.762Z,1017.54
2023-03-02T06:53:26.752Z,1017.55
2023-03-02T06:54:26.775Z,1017.54
2023-03-02T06:55:26.721Z,1017.52
2023-03-02T06:56:26.713Z,1017.53
2023-03-02T06:57:26.725Z,1017.54
2023-03-02T06:58:26.692Z,1017.54
2023-03-02T06:59:26.687Z,1017.56
2023-03-02T07:00:27.157Z,1017.58
2023-03-02T07:01:26.696Z,1017.59
2023-03-02T07:02:26.646Z,1017.58
2023-03-02T07:03:26.675Z,1017.64
2023-03-02T07:04:26.638Z,1017.57
2023-03-02T07:05:26.636Z,1017.60
2023-03-02T07:06:26.641Z,1017.64
2023-03-02T07:07:26.604Z,1017.60
2023-03-02T07:08:26.595Z,1017.60
2023-03-02T07:09:26.569Z,1017.59
2023-03-02T07:10:26.560Z,1017.64
2023-03-02T07:11:26.567Z,1017.61
2023-03-02T07:12:26.566Z,1017.62
2023-03-02T07:13:26.540Z,1017.59
2023-03-02T07:14:26.509Z,1017.58
2023-03-02T07:15:26.505Z,1017.57
2023-03-02T07:16:26.542Z,1017.59
2023-03-02T07:17:26.499Z,1017.63
2023-03-02T07:18:26.488Z,1017.65
2023-03-02T07:19:26.465Z,1017.64
2023-03-02T07:20:26.445Z,1017.61
2023-03-02T07:21:26.449Z,1017.64
2023-03-02T07:22:26.423Z,1017.65
2023-03-02T07:23:26.462Z,1017.63
2023-03-02T07:24:26.432Z,1017.61
2023-03-02T07:25:26.395Z,1017.59
2023-03-02T07:26:26.382Z,1017.59
2023-03-02T07:27:26.414Z,1017.59
2023-03-02T07:28:26.374Z,1017.59
2023-03-02T07:29:26.349Z,1017.62
2023-03-02T07:30:26.395Z,1017.60
2023-03-02T07:31:26.323Z,1017.63
2023-03-02T07:32:26.545Z,1017.62
2023-03-02T07:33:26.324Z,1017.62
2023-03-02T07:34:26.314Z,1017.65
2023-03-02T07:35:26.305Z,1017.64
2023-03-02T07:36:26.279Z,1017.65
2023-03-02T07:37:26.279Z,1017.62
2023-03-02T07:38:26.278Z,1017.61
2023-03-02T07:39:26.246Z,1017.66
2023-03-02T07:40:26.273Z,1017.64
2023-03-02T07:41:26.236Z,1017.71
2023-03-02T07:42:26.212Z,1017.67
2023-03-02T07:43:26.423Z,1017.64
2023-03-02T07:44:26.196Z,1017.59
2023-03-02T07:45:26.188Z,1017.60
2023-03-02T07:46:26.256Z,1017.58
2023-03-02T07:47:26.196Z,1017.61
2023-03-02T07:48:26.154Z,1017.60
2023-03-02T07:49:26.194Z,1017.52
2023-03-02T07:50:26.120Z,1017.60
2023-03-02T07:51:26.146Z,1017.61
2023-03-02T07:52:26.123Z,1017.57
2023-03-02T07:53:26.100Z,1017.57
2023-03-02T07:54:26.084Z,1017.62
2023-03-02T07:55:26.090Z,1017.63
2023-03-02T07:56:26.051Z,1017.64
2023-03-02T07:57:26.068Z,1017.62
2023-03-02T07:58:26.032Z,1017.64
2023-03-02T07:59:26.085Z,1017.70
2023-03-02T08:00:26.047Z,1017.61
2023-03-02T08:01:26.042Z,1017.60
2023-03-02T08:02:26.064Z,1017.59
2023-03-02T08:03:25.979Z,1017.57
2023-03-02T08:04:25.992Z,1017.56
2023-03-02T08:05:25.961Z,1017.56
2023-03-02T08:06:26.259Z,1017.55
2023-03-02T08:07:25.946Z,1017.56
2023-03-02T08:08:25.922Z,1017.54
2023-03-02T08:09:25.924Z,1017.56
2023-03-02T08:10:25.899Z,1017.55
2023-03-02T08:11:25.912Z,1017.58
2023-03-02T08:12:25.918Z,1017.56
2023-03-02T08:13:25.870Z,1017.56
2023-03-02T08:14:25.855Z,1017.50
2023-03-02T08:15:25.848Z,1017.58
2023-03-02T08:16:25.923Z,1017.56
2023-03-02T08:17:25.842Z,1017.51
2023-03-02T08:18:25.840Z,1017.57
2023-03-02T08:19:25.824Z,1017.56
2023-03-02T08:20:25.799Z,1017.52
2023-03-02T08:21:25.780Z,1017.54
2023-03-02T08:22:25.768Z,1017.52
2023-03-02T08:23:25.868Z,1017.54
2023-03-02T08:24:25.751Z,1017.54
2023-03-02T08:25:25.733Z,1017.55
2023-03-02T08:26:25.738Z,1017.48
2023-03-02T08:27:25.710Z,1017.46
2023-03-02T08:28:25.704Z,1017.48
2023-03-02T08:29:25.720Z,1017.51
2023-03-02T08:30:25.692Z,1017.56
2023-03-02T08:31:25.735Z,1017.49
2023-03-02T08:32:25.793Z,1017.51
2023-03-02T08:33:25.648Z,1017.52
2023-03-02T08:34:25.641Z,1017.43
2023-03-02T08:35:25.687Z,1017.42
2023-03-02T08:36:25.629Z,1017.50
2023-03-02T08:37:25.603Z,1017.49
2023-03-02T08:38:25.588Z,1017.47
2023-03-02T08:39:25.780Z,1017.42
2023-03-02T08:40:25.589Z,1017.38
2023-03-02T08:41:25.566Z,1017.44
2023-03-02T08:42:25.552Z,1017.40
2023-03-02T08:43:25.548Z,1017.38
2023-03-02T08:44:25.525Z,1017.41
2023-03-02T08:45:25.577Z,1017.39
2023-03-02T08:46:25.525Z,1017.39
2023-03-02T08:47:25.488Z,1017.34
2023-03-02T08:48:25.485Z,1017.42
2023-03-02T08:49:25.483Z,1017.38
2023-03-02T08:50:25.484Z,1017.41
2023-03-02T08:51:25.464Z,1017.43
2023-03-02T08:52:25.480Z,1017.40
2023-03-02T08:53:25.420Z,1017.33
2023-03-02T08:54:25.405Z,1017.33
2023-03-02T08:55:25.517Z,1017.33
2023-03-02T08:56:25.418Z,1017.31
2023-03-02T08:57:25.396Z,1017.31
2023-03-02T08:58:25.361Z,1017.32
2023-03-02T08:59:25.365Z,1017.35
2023-03-02T09:00:25.357Z,1017.33
2023-03-02T09:01:25.405Z,1017.33
2023-03-02T09:02:25.318Z,1017.30
2023-03-02T09:03:25.312Z,1017.28
2023-03-02T09:04:25.409Z,1017.33
2023-03-02T09:05:25.319Z,1017.30
2023-03-02T09:06:25.271Z,1017.26
2023-03-02T09:07:25.269Z,1017.32
2023-03-02T09:08:25.247Z,1017.29
2023-03-02T09:09:25.236Z,1017.30
2023-03-02T09:10:25.254Z,1017.25
2023-03-02T09:11:25.221Z,1017.24
2023-03-02T09:12:25.207Z,1017.25
2023-03-02T09:13:25.219Z,1017.25
2023-03-02T09:14:25.198Z,1017.26
2023-03-02T09:15:25.195Z,1017.23
2023-03-02T09:16:25.191Z,1017.29
2023-03-02T09:17:25.148Z,1017.29
2023-03-02T09:18:25.159Z,1017.20
2023-03-02T09:19:25.125Z,1017.21
2023-03-02T09:20:25.143Z,1017.24
2023-03-02T09:21:25.134Z,1017.23
2023-03-02T09:22:25.086Z,1017.25
2023-03-02T09:23:25.083Z,1017.25
2023-03-02T09:24:25.081Z,1017.19
2023-03-02T09:25:25.092Z,1017.22
2023-03-02T09:26:25.042Z,1017.20
2023-03-02T09:27:25.085Z,1017.22
2023-03-02T09:28:25.036Z,1017.21
2023-03-02T09:29:25.056Z,1017.27
2023-03-02T09:30:25.045Z,1017.27
2023-03-02T09:31:25.182Z,1017.21
2023-03-02T09:32:25.171Z,1017.20
2023-03-02T09:33:25.001Z,1017.19
2023-03-02T09:34:24.953Z,1017.17
2023-03-02T09:35:24.976Z,1017.17
2023-03-02T09:36:24.934Z,1017.20
2023-03-02T09:37:24.938Z,1017.22
2023-03-02T09:38:24.930Z,1017.29
2023-03-02T09:39:24.905Z,1017.25
2023-03-02T09:40:24.909Z,1017.24
2023-03-02T09:41:24.885Z,1017.24
2023-03-02T09:42:32.159Z,1017.17
2023-03-02T09:43:24.874Z,1017.24
2023-03-02T09:44:24.844Z,1017.20
2023-03-02T09:45:24.899Z,1017.23
2023-03-02T09:46:24.857Z,1017.24
2023-03-02T09:47:35.133Z,1017.28
2023-03-02T09:48:24.805Z,1017.25
2023-03-02T09:49:24.792Z,1017.28
2023-03-02T09:50:24.805Z,1017.30
2023-03-02T09:51:24.781Z,1017.30
2023-03-02T09:52:24.755Z,1017.29
2023-03-02T09:53:24.750Z,1017.27
2023-03-02T09:54:24.771Z,1017.30
2023-03-02T09:55:24.749Z,1017.32
2023-03-02T09:56:24.716Z,1017.32
2023-03-02T09:57:24.699Z,1017.32
2023-03-02T09:58:24.689Z,1017.28
2023-03-02T09:59:24.691Z,1017.28
2023-03-02T10:00:24.717Z,1017.29
2023-03-02T10:01:24.680Z,1017.32
2023-03-02T10:02:24.644Z,1017.36
2023-03-02T10:03:24.672Z,1017.34
2023-03-02T10:04:24.758Z,1017.29
2023-03-02T10:05:24.631Z,1017.27
2023-03-02T10:06:24.621Z,1017.23
2023-03-02T10:07:24.612Z,1017.33
2023-03-02T10:08:24.570Z,1017.22
2023-03-02T10:09:24.579Z,1017.19
2023-03-02T10:10:24.589Z,1017.22
2023-03-02T10:11:24.543Z,1017.23
2023-03-02T10:12:24.589Z,1017.18
2023-03-02T10:13:24.557Z,1017.22
2023-03-02T10:14:24.508Z,1017.21
2023-03-02T10:15:24.518Z,1017.18
2023-03-02T10:16:24.501Z,1017.17
2023-03-02T10:17:24.490Z,1017.17
2023-03-02T10:18:24.530Z,1017.16
2023-03-02T10:19:24.457Z,1017.14
2023-03-02T10:20:24.508Z,1017.18
2023-03-02T10:21:24.451Z,1017.18
2023-03-02T10:22:24.411Z,1017.19
2023-03-02T10:23:24.427Z,1017.18
2023-03-02T10:24:24.425Z,1017.17
2023-03-02T10:25:24.435Z,1017.19
2023-03-02T10:26:24.388Z,1017.15
2023-03-02T10:27:24.390Z,1017.16
2023-03-02T10:28:24.346Z,1017.21
2023-03-02T10:29:24.344Z,1017.09
2023-03-02T10:30:24.406Z,1017.09
2023-03-02T10:31:24.397Z,1017.10
2023-03-02T10:32:24.437Z,1017.08
2023-03-02T10:33:24.299Z,1017.10
2023-03-02T10:34:24.274Z,1017.07
2023-03-02T10:35:24.378Z,1017.09
2023-03-02T10:36:24.256Z,1017.06
2023-03-02T10:37:24.309Z,1017.06
2023-03-02T10:38:24.234Z,1017.02
2023-03-02T10:39:24.236Z,1017.02
2023-03-02T10:40:24.345Z,1017.02
2023-03-02T10:41:24.213Z,1017.01
2023-03-02T10:42:24.236Z,1017.03
2023-03-02T10:43:24.180Z,1017.01
2023-03-02T10:44:24.161Z,1017.08
2023-03-02T10:45:24.181Z,1017.07
2023-03-02T10:46:24.277Z,1017.02
2023-03-02T10:47:24.137Z,1017.03
2023-03-02T10:48:24.127Z,1017.04
2023-03-02T10:49:24.141Z,1016.96
2023-03-02T10:50:24.241Z,1016.99
2023-03-02T10:51:24.093Z,1017.02
2023-03-02T10:52:24.128Z,1016.98
2023-03-02T10:53:24.067Z,1016.98
2023-03-02T10:54:24.078Z,1017.02
2023-03-02T10:55:24.073Z,1016.98
2023-03-02T10:56:24.038Z,1016.98
2023-03-02T10:57:24.033Z,1017.04
2023-03-02T10:58:24.006Z,1017.05
2023-03-02T10:59:24.014Z,1016.97
2023-03-02T11:00:24.048Z,1016.96
2023-03-02T11:01:23.983Z,1017.00
2023-03-02T11:02:24.011Z,1017.02
2023-03-02T11:03:23.969Z,1016.97
2023-03-02T11:04:24.004Z,1017.02
2023-03-02T11:05:23.968Z,1016.98
2023-03-02T11:06:23.924Z,1016.98
2023-03-02T11:07:23.907Z,1016.96
2023-03-02T11:08:23.888Z,1016.93
2023-03-02T11:09:23.914Z,1016.95
2023-03-02T11:10:23.891Z,1016.94
2023-03-02T11:11:23.887Z,1016.95
2023-03-02T11:12:23.863Z,1016.95
2023-03-02T11:13:23.857Z,1016.99
2023-03-02T11:14:23.829Z,1016.88
2023-03-02T11:15:23.834Z,1016.92
2023-03-02T11:16:23.921Z,1016.94
2023-03-02T11:17:23.808Z,1016.89
2023-03-02T11:18:23.783Z,1016.88
2023-03-02T11:19:23.764Z,1016.90
2023-03-02T11:20:23.785Z,1016.90
2023-03-02T11:21:23.744Z,1016.92
2023-03-02T11:22:23.734Z,1016.92
2023-03-02T11:23:23.733Z,1016.90
2023-03-02T11:24:23.716Z,1016.89
2023-03-02T11:25:23.716Z,1016.89
2023-03-02T11:26:23.696Z,1016.88
2023-03-02T11:27:23.673Z,1016.83
2023-03-02T11:28:23.668Z,1016.82
2023-03-02T11:29:23.657Z,1016.80
2023-03-02T11:30:23.700Z,1016.76
2023-03-02T11:31:23.720Z,1016.77
2023-03-02T11:32:23.702Z,1016.73
2023-03-02T11:33:23.626Z,1016.76
2023-03-02T11:34:23.728Z,1016.71
2023-03-02T11:35:23.618Z,1016.77
2023-03-02T11:36:23.616Z,1016.75
2023-03-02T11:37:23.602Z,1016.63
2023-03-02T11:38:23.601Z,1016.66
2023-03-02T11:39:23.549Z,1016.67
2023-03-02T11:40:23.532Z,1016.64
2023-03-02T11:41:23.605Z,1016.59
2023-03-02T11:42:23.603Z,1016.60
2023-03-02T11:43:23.511Z,1016.57
2023-03-02T11:44:23.520Z,1016.60
2023-03-02T11:45:23.473Z,1016.56
2023-03-02T11:46:26.118Z,1016.62
2023-03-02T11:47:23.597Z,1016.57
2023-03-02T11:48:23.440Z,1016.56
2023-03-02T11:49:23.435Z,1016.55
2023-03-02T11:50:23.421Z,1016.61
2023-03-02T11:51:23.540Z,1016.53
2023-03-02T11:52:23.414Z,1016.54
2023-03-02T11:53:23.432Z,1016.50
2023-03-02T11:54:23.383Z,1016.51
2023-03-02T11:55:23.379Z,1016.55
2023-03-02T11:56:23.385Z,1016.51
2023-03-02T11:57:23.359Z,1016.54
2023-03-02T11:58:23.352Z,1016.51
2023-03-02T11:59:23.645Z,1016.48
2023-03-02T12:00:23.334Z,1016.49
2023-03-02T12:01:23.314Z,1016.45
2023-03-02T12:02:23.344Z,1016.45
2023-03-02T12:03:23.273Z,1016.45
2023-03-02T12:04:23.259Z,1016.46
2023-03-02T12:05:23.414Z,1016.38